sensor_id;sensor_type;location;lat;lon;timestamp;temperature;humidity
74359;DHT22;62792;46.236;6.040;2023-09-19T00:01:24;25.60;66.40
74359;DHT22;62792;46.236;6.040;2023-09-19T00:06:27;25.70;66.50
74359;DHT22;62792;46.236;6.040;2023-09-19T00:11:34;25.60;66.60
74359;DHT22;62792;46.236;6.040;2023-09-19T00:16:37;25.60;66.80
74359;DHT22;62792;46.236;6.040;2023-09-19T00:21:40;25.60;66.80
74359;DHT22;62792;46.236;6.040;2023-09-19T00:26:44;25.70;66.60
74359;DHT22;62792;46.236;6.040;2023-09-19T00:31:48;25.60;66.60
74359;DHT22;62792;46.236;6.040;2023-09-19T00:36:52;25.70;66.50
74359;DHT22;62792;46.236;6.040;2023-09-19T00:41:57;25.60;66.60
74359;DHT22;62792;46.236;6.040;2023-09-19T00:47:06;25.60;66.70
74359;DHT22;62792;46.236;6.040;2023-09-19T00:52:11;25.60;66.40
74359;DHT22;62792;46.236;6.040;2023-09-19T00:57:16;25.60;66.30
74359;DHT22;62792;46.236;6.040;2023-09-19T01:02:20;25.60;66.50
74359;DHT22;62792;46.236;6.040;2023-09-19T01:07:23;25.60;66.60
74359;DHT22;62792;46.236;6.040;2023-09-19T01:12:30;25.60;66.60
74359;DHT22;62792;46.236;6.040;2023-09-19T01:17:38;25.60;66.60
74359;DHT22;62792;46.236;6.040;2023-09-19T01:22:48;25.50;66.50
74359;DHT22;62792;46.236;6.040;2023-09-19T01:28:06;25.60;66.60
74359;DHT22;62792;46.236;6.040;2023-09-19T01:33:13;25.50;66.40
74359;DHT22;62792;46.236;6.040;2023-09-19T01:38:16;25.50;66.60
74359;DHT22;62792;46.236;6.040;2023-09-19T01:43:21;25.50;66.70
74359;DHT22;62792;46.236;6.040;2023-09-19T01:48:33;25.50;66.50
74359;DHT22;62792;46.236;6.040;2023-09-19T01:53:41;25.50;66.40
74359;DHT22;62792;46.236;6.040;2023-09-19T01:58:48;25.50;66.60
74359;DHT22;62792;46.236;6.040;2023-09-19T02:03:53;25.40;66.60
74359;DHT22;62792;46.236;6.040;2023-09-19T02:08:58;25.50;66.60
74359;DHT22;62792;46.236;6.040;2023-09-19T02:14:01;25.50;66.50
74359;DHT22;62792;46.236;6.040;2023-09-19T02:19:07;25.50;66.60
74359;DHT22;62792;46.236;6.040;2023-09-19T02:24:10;25.50;66.40
74359;DHT22;62792;46.236;6.040;2023-09-19T02:29:14;25.50;66.30
74359;DHT22;62792;46.236;6.040;2023-09-19T02:34:18;25.50;66.40
74359;DHT22;62792;46.236;6.040;2023-09-19T02:39:22;25.50;66.40
74359;DHT22;62792;46.236;6.040;2023-09-19T02:44:25;25.50;66.40
74359;DHT22;62792;46.236;6.040;2023-09-19T02:49:30;25.40;66.30
74359;DHT22;62792;46.236;6.040;2023-09-19T02:54:34;25.40;66.50
74359;DHT22;62792;46.236;6.040;2023-09-19T02:59:38;25.50;66.60
74359;DHT22;62792;46.236;6.040;2023-09-19T03:04:45;25.50;66.50
74359;DHT22;62792;46.236;6.040;2023-09-19T03:09:48;25.50;66.40
74359;DHT22;62792;46.236;6.040;2023-09-19T03:14:54;25.50;66.50
74359;DHT22;62792;46.236;6.040;2023-09-19T03:19:59;25.50;66.40
74359;DHT22;62792;46.236;6.040;2023-09-19T03:25:02;25.40;66.50
74359;DHT22;62792;46.236;6.040;2023-09-19T03:30:09;25.50;66.20
74359;DHT22;62792;46.236;6.040;2023-09-19T03:35:16;25.40;66.40
74359;DHT22;62792;46.236;6.040;2023-09-19T03:40:19;25.50;66.20
74359;DHT22;62792;46.236;6.040;2023-09-19T03:45:23;25.50;66.40
74359;DHT22;62792;46.236;6.040;2023-09-19T03:50:28;25.50;66.30
74359;DHT22;62792;46.236;6.040;2023-09-19T03:55:31;25.50;66.40
74359;DHT22;62792;46.236;6.040;2023-09-19T04:00:33;25.50;66.20
74359;DHT22;62792;46.236;6.040;2023-09-19T04:05:41;25.50;66.30
74359;DHT22;62792;46.236;6.040;2023-09-19T04:10:44;25.40;66.30
74359;DHT22;62792;46.236;6.040;2023-09-19T04:15:47;25.40;66.00
74359;DHT22;62792;46.236;6.040;2023-09-19T04:20:52;25.40;66.30
74359;DHT22;62792;46.236;6.040;2023-09-19T04:25:55;25.30;66.20
74359;DHT22;62792;46.236;6.040;2023-09-19T04:30:58;25.40;66.30
74359;DHT22;62792;46.236;6.040;2023-09-19T04:36:04;25.40;66.10
74359;DHT22;62792;46.236;6.040;2023-09-19T04:41:29;25.50;66.00
74359;DHT22;62792;46.236;6.040;2023-09-19T04:46:31;25.40;66.20
74359;DHT22;62792;46.236;6.040;2023-09-19T04:51:36;25.30;66.20
74359;DHT22;62792;46.236;6.040;2023-09-19T04:56:39;25.40;66.30
74359;DHT22;62792;46.236;6.040;2023-09-19T05:01:42;25.40;66.30
74359;DHT22;62792;46.236;6.040;2023-09-19T05:06:47;25.40;66.00
74359;DHT22;62792;46.236;6.040;2023-09-19T05:11:49;25.30;66.00
74359;DHT22;62792;46.236;6.040;2023-09-19T05:16:52;25.40;66.20
74359;DHT22;62792;46.236;6.040;2023-09-19T05:21:57;25.40;66.00
74359;DHT22;62792;46.236;6.040;2023-09-19T05:27:00;25.40;66.20
74359;DHT22;62792;46.236;6.040;2023-09-19T05:32:03;25.40;66.10
74359;DHT22;62792;46.236;6.040;2023-09-19T05:37:08;25.40;66.20
74359;DHT22;62792;46.236;6.040;2023-09-19T05:42:11;25.30;66.00
74359;DHT22;62792;46.236;6.040;2023-09-19T05:47:15;25.40;66.30
74359;DHT22;62792;46.236;6.040;2023-09-19T05:52:19;25.30;66.00
74359;DHT22;62792;46.236;6.040;2023-09-19T05:57:23;25.30;66.30
74359;DHT22;62792;46.236;6.040;2023-09-19T06:02:26;25.40;66.40
74359;DHT22;62792;46.236;6.040;2023-09-19T06:07:33;25.30;66.30
74359;DHT22;62792;46.236;6.040;2023-09-19T06:12:38;25.30;66.10
74359;DHT22;62792;46.236;6.040;2023-09-19T06:17:41;25.40;66.20
74359;DHT22;62792;46.236;6.040;2023-09-19T06:22:46;25.30;66.20
74359;DHT22;62792;46.236;6.040;2023-09-19T06:27:49;25.30;66.00
74359;DHT22;62792;46.236;6.040;2023-09-19T06:32:55;25.30;66.00
74359;DHT22;62792;46.236;6.040;2023-09-19T06:38:01;25.30;66.10
74359;DHT22;62792;46.236;6.040;2023-09-19T06:43:05;25.30;66.10
74359;DHT22;62792;46.236;6.040;2023-09-19T06:48:08;25.40;66.20
74359;DHT22;62792;46.236;6.040;2023-09-19T06:53:13;25.30;65.70
74359;DHT22;62792;46.236;6.040;2023-09-19T06:58:17;25.30;66.20
74359;DHT22;62792;46.236;6.040;2023-09-19T07:03:22;25.30;66.10
74359;DHT22;62792;46.236;6.040;2023-09-19T07:08:29;25.40;66.10
74359;DHT22;62792;46.236;6.040;2023-09-19T07:13:32;25.40;66.70
74359;DHT22;62792;46.236;6.040;2023-09-19T07:18:35;25.30;67.60
74359;DHT22;62792;46.236;6.040;2023-09-19T07:23:39;25.30;67.40
74359;DHT22;62792;46.236;6.040;2023-09-19T07:28:43;25.30;68.10
74359;DHT22;62792;46.236;6.040;2023-09-19T07:33:45;25.30;67.70
74359;DHT22;62792;46.236;6.040;2023-09-19T07:38:50;25.30;67.90
74359;DHT22;62792;46.236;6.040;2023-09-19T07:43:53;25.30;68.10
74359;DHT22;62792;46.236;6.040;2023-09-19T07:48:56;25.40;67.90
74359;DHT22;62792;46.236;6.040;2023-09-19T07:54:01;25.40;67.90
74359;DHT22;62792;46.236;6.040;2023-09-19T07:59:04;25.50;68.00
74359;DHT22;62792;46.236;6.040;2023-09-19T08:09:29;25.60;67.40
74359;DHT22;62792;46.236;6.040;2023-09-19T08:14:34;25.60;67.00
74359;DHT22;62792;46.236;6.040;2023-09-19T08:19:37;25.70;67.10
74359;DHT22;62792;46.236;6.040;2023-09-19T08:24:44;25.70;66.70
74359;DHT22;62792;46.236;6.040;2023-09-19T08:29:47;25.70;66.70
74359;DHT22;62792;46.236;6.040;2023-09-19T08:34:51;25.70;66.50
74359;DHT22;62792;46.236;6.040;2023-09-19T08:39:56;25.80;66.40
74359;DHT22;62792;46.236;6.040;2023-09-19T08:44:59;25.80;66.30
74359;DHT22;62792;46.236;6.040;2023-09-19T08:50:04;25.70;66.10
74359;DHT22;62792;46.236;6.040;2023-09-19T08:55:15;25.80;66.40
74359;DHT22;62792;46.236;6.040;2023-09-19T09:00:22;25.90;66.70
74359;DHT22;62792;46.236;6.040;2023-09-19T09:05:30;25.90;66.70
74359;DHT22;62792;46.236;6.040;2023-09-19T09:10:37;25.90;66.60
74359;DHT22;62792;46.236;6.040;2023-09-19T09:15:43;26.10;65.70
74359;DHT22;62792;46.236;6.040;2023-09-19T09:20:48;25.90;65.90
74359;DHT22;62792;46.236;6.040;2023-09-19T09:25:53;26.00;66.10
74359;DHT22;62792;46.236;6.040;2023-09-19T09:30:59;26.10;65.40
74359;DHT22;62792;46.236;6.040;2023-09-19T09:36:09;25.80;65.00
74359;DHT22;62792;46.236;6.040;2023-09-19T09:41:21;25.90;65.40
74359;DHT22;62792;46.236;6.040;2023-09-19T09:46:44;26.00;64.80
74359;DHT22;62792;46.236;6.040;2023-09-19T09:52:17;26.00;64.70
74359;DHT22;62792;46.236;6.040;2023-09-19T09:57:27;26.00;64.50
74359;DHT22;62792;46.236;6.040;2023-09-19T10:02:35;26.00;64.50
74359;DHT22;62792;46.236;6.040;2023-09-19T10:07:39;26.00;64.80
74359;DHT22;62792;46.236;6.040;2023-09-19T10:12:50;26.00;64.40
74359;DHT22;62792;46.236;6.040;2023-09-19T10:17:57;26.00;64.10
74359;DHT22;62792;46.236;6.040;2023-09-19T10:23:04;26.00;63.60
74359;DHT22;62792;46.236;6.040;2023-09-19T10:28:14;26.00;63.90
74359;DHT22;62792;46.236;6.040;2023-09-19T10:33:18;25.90;62.90
74359;DHT22;62792;46.236;6.040;2023-09-19T10:38:23;25.90;63.40
74359;DHT22;62792;46.236;6.040;2023-09-19T10:43:29;25.90;63.60
74359;DHT22;62792;46.236;6.040;2023-09-19T10:48:37;25.90;63.40
74359;DHT22;62792;46.236;6.040;2023-09-19T10:53:43;25.80;63.30
74359;DHT22;62792;46.236;6.040;2023-09-19T10:58:50;25.90;63.10
74359;DHT22;62792;46.236;6.040;2023-09-19T11:03:57;25.80;63.10
74359;DHT22;62792;46.236;6.040;2023-09-19T11:09:26;25.90;62.50
74359;DHT22;62792;46.236;6.040;2023-09-19T11:14:47;25.70;62.80
74359;DHT22;62792;46.236;6.040;2023-09-19T11:25:46;25.80;62.20
74359;DHT22;62792;46.236;6.040;2023-09-19T11:30:53;25.60;62.40
74359;DHT22;62792;46.236;6.040;2023-09-19T11:36:00;25.70;62.20
74359;DHT22;62792;46.236;6.040;2023-09-19T11:46:51;25.70;59.50
74359;DHT22;62792;46.236;6.040;2023-09-19T11:51:55;25.70;59.50
74359;DHT22;62792;46.236;6.040;2023-09-19T11:57:00;25.60;60.70
74359;DHT22;62792;46.236;6.040;2023-09-19T12:02:04;25.70;59.80
74359;DHT22;62792;46.236;6.040;2023-09-19T12:07:09;25.60;60.10
74359;DHT22;62792;46.236;6.040;2023-09-19T12:12:20;25.60;60.70
74359;DHT22;62792;46.236;6.040;2023-09-19T12:17:24;25.60;60.30
74359;DHT22;62792;46.236;6.040;2023-09-19T12:22:40;25.30;58.90
74359;DHT22;62792;46.236;6.040;2023-09-19T12:27:47;25.10;59.10
74359;DHT22;62792;46.236;6.040;2023-09-19T12:32:51;24.90;60.60
74359;DHT22;62792;46.236;6.040;2023-09-19T12:37:54;24.60;59.30
74359;DHT22;62792;46.236;6.040;2023-09-19T12:42:59;24.70;60.40
74359;DHT22;62792;46.236;6.040;2023-09-19T12:48:20;24.80;59.90
74359;DHT22;62792;46.236;6.040;2023-09-19T12:53:25;24.50;59.40
74359;DHT22;62792;46.236;6.040;2023-09-19T12:58:32;24.40;59.40
74359;DHT22;62792;46.236;6.040;2023-09-19T13:03:37;24.90;59.20
74359;DHT22;62792;46.236;6.040;2023-09-19T13:08:41;25.00;59.10
74359;DHT22;62792;46.236;6.040;2023-09-19T13:13:48;25.10;59.00
74359;DHT22;62792;46.236;6.040;2023-09-19T13:18:55;24.70;57.60
74359;DHT22;62792;46.236;6.040;2023-09-19T13:29:26;25.30;58.60
74359;DHT22;62792;46.236;6.040;2023-09-19T13:34:29;25.30;57.70
74359;DHT22;62792;46.236;6.040;2023-09-19T13:39:32;24.80;57.10
74359;DHT22;62792;46.236;6.040;2023-09-19T13:44:38;24.70;57.20
74359;DHT22;62792;46.236;6.040;2023-09-19T13:49:42;24.50;56.70
74359;DHT22;62792;46.236;6.040;2023-09-19T13:54:46;24.40;56.30
74359;DHT22;62792;46.236;6.040;2023-09-19T13:59:50;24.40;57.00
74359;DHT22;62792;46.236;6.040;2023-09-19T14:04:55;24.30;56.20
74359;DHT22;62792;46.236;6.040;2023-09-19T14:09:59;24.10;56.10
74359;DHT22;62792;46.236;6.040;2023-09-19T14:15:04;24.20;55.90
74359;DHT22;62792;46.236;6.040;2023-09-19T14:20:09;24.10;56.60
74359;DHT22;62792;46.236;6.040;2023-09-19T14:25:12;24.00;57.40
74359;DHT22;62792;46.236;6.040;2023-09-19T14:30:17;24.40;57.40
74359;DHT22;62792;46.236;6.040;2023-09-19T14:35:20;24.70;56.60
74359;DHT22;62792;46.236;6.040;2023-09-19T14:40:25;25.00;56.00
74359;DHT22;62792;46.236;6.040;2023-09-19T14:45:30;25.30;56.30
74359;DHT22;62792;46.236;6.040;2023-09-19T14:50:33;25.50;55.40
74359;DHT22;62792;46.236;6.040;2023-09-19T14:55:36;25.80;54.80
74359;DHT22;62792;46.236;6.040;2023-09-19T15:00:44;26.10;54.80
74359;DHT22;62792;46.236;6.040;2023-09-19T15:05:47;26.10;54.10
74359;DHT22;62792;46.236;6.040;2023-09-19T15:10:50;26.50;53.50
74359;DHT22;62792;46.236;6.040;2023-09-19T15:15:59;26.80;53.80
74359;DHT22;62792;46.236;6.040;2023-09-19T15:21:02;26.60;52.60
74359;DHT22;62792;46.236;6.040;2023-09-19T15:26:07;26.10;53.50
74359;DHT22;62792;46.236;6.040;2023-09-19T15:31:12;26.40;53.30
74359;DHT22;62792;46.236;6.040;2023-09-19T15:36:15;26.30;54.10
74359;DHT22;62792;46.236;6.040;2023-09-19T15:41:20;26.20;54.30
74359;DHT22;62792;46.236;6.040;2023-09-19T15:46:24;26.40;53.20
74359;DHT22;62792;46.236;6.040;2023-09-19T15:51:29;27.80;51.50
74359;DHT22;62792;46.236;6.040;2023-09-19T15:56:32;28.80;50.50
74359;DHT22;62792;46.236;6.040;2023-09-19T16:01:38;29.20;49.00
74359;DHT22;62792;46.236;6.040;2023-09-19T16:06:42;29.80;48.10
74359;DHT22;62792;46.236;6.040;2023-09-19T16:11:45;30.20;47.60
74359;DHT22;62792;46.236;6.040;2023-09-19T16:16:51;30.50;47.10
74359;DHT22;62792;46.236;6.040;2023-09-19T16:21:55;30.70;46.80
74359;DHT22;62792;46.236;6.040;2023-09-19T16:26:58;30.90;46.70
74359;DHT22;62792;46.236;6.040;2023-09-19T16:32:02;31.10;46.70
74359;DHT22;62792;46.236;6.040;2023-09-19T16:37:06;31.00;46.50
74359;DHT22;62792;46.236;6.040;2023-09-19T16:42:12;31.10;46.50
74359;DHT22;62792;46.236;6.040;2023-09-19T16:47:23;30.80;46.90
74359;DHT22;62792;46.236;6.040;2023-09-19T16:52:26;30.50;47.30
74359;DHT22;62792;46.236;6.040;2023-09-19T16:57:29;30.10;47.60
74359;DHT22;62792;46.236;6.040;2023-09-19T17:02:36;29.70;48.30
74359;DHT22;62792;46.236;6.040;2023-09-19T17:07:40;29.20;48.80
74359;DHT22;62792;46.236;6.040;2023-09-19T17:12:43;28.90;49.80
74359;DHT22;62792;46.236;6.040;2023-09-19T17:17:47;28.60;50.10
74359;DHT22;62792;46.236;6.040;2023-09-19T17:22:50;28.40;50.40
74359;DHT22;62792;46.236;6.040;2023-09-19T17:27:53;28.30;50.90
74359;DHT22;62792;46.236;6.040;2023-09-19T17:32:57;28.10;51.00
74359;DHT22;62792;46.236;6.040;2023-09-19T17:38:01;28.00;50.90
74359;DHT22;62792;46.236;6.040;2023-09-19T17:43:04;27.90;51.40
74359;DHT22;62792;46.236;6.040;2023-09-19T17:48:09;27.70;51.50
74359;DHT22;62792;46.236;6.040;2023-09-19T17:53:11;27.60;51.70
74359;DHT22;62792;46.236;6.040;2023-09-19T17:58:15;27.60;51.90
74359;DHT22;62792;46.236;6.040;2023-09-19T18:03:19;27.50;51.90
74359;DHT22;62792;46.236;6.040;2023-09-19T18:08:22;27.40;52.00
74359;DHT22;62792;46.236;6.040;2023-09-19T18:13:25;27.40;52.10
74359;DHT22;62792;46.236;6.040;2023-09-19T18:18:29;27.30;52.40
74359;DHT22;62792;46.236;6.040;2023-09-19T18:23:32;27.20;52.40
74359;DHT22;62792;46.236;6.040;2023-09-19T18:28:36;27.20;52.40
74359;DHT22;62792;46.236;6.040;2023-09-19T18:33:42;27.10;52.60
74359;DHT22;62792;46.236;6.040;2023-09-19T18:38:45;27.10;52.90
74359;DHT22;62792;46.236;6.040;2023-09-19T18:43:49;27.10;52.90
74359;DHT22;62792;46.236;6.040;2023-09-19T18:48:53;27.00;53.20
74359;DHT22;62792;46.236;6.040;2023-09-19T18:53:57;27.00;53.20
74359;DHT22;62792;46.236;6.040;2023-09-19T18:59:13;26.90;53.30
74359;DHT22;62792;46.236;6.040;2023-09-19T19:04:18;26.90;53.60
74359;DHT22;62792;46.236;6.040;2023-09-19T19:09:21;26.80;53.80
74359;DHT22;62792;46.236;6.040;2023-09-19T19:14:24;26.80;53.90
74359;DHT22;62792;46.236;6.040;2023-09-19T19:19:30;26.80;54.10
74359;DHT22;62792;46.236;6.040;2023-09-19T19:24:33;26.60;54.00
74359;DHT22;62792;46.236;6.040;2023-09-19T19:29:36;26.60;54.60
74359;DHT22;62792;46.236;6.040;2023-09-19T19:34:40;26.60;54.50
74359;DHT22;62792;46.236;6.040;2023-09-19T19:39:43;26.50;54.70
74359;DHT22;62792;46.236;6.040;2023-09-19T19:44:46;26.50;55.00
74359;DHT22;62792;46.236;6.040;2023-09-19T19:49:56;26.40;55.00
74359;DHT22;62792;46.236;6.040;2023-09-19T19:55:00;26.40;55.00
74359;DHT22;62792;46.236;6.040;2023-09-19T20:00:04;26.40;55.00
74359;DHT22;62792;46.236;6.040;2023-09-19T20:05:10;26.30;56.00
74359;DHT22;62792;46.236;6.040;2023-09-19T20:10:13;26.40;56.10
74359;DHT22;62792;46.236;6.040;2023-09-19T20:15:17;26.20;56.20
74359;DHT22;62792;46.236;6.040;2023-09-19T20:20:21;26.20;56.10
74359;DHT22;62792;46.236;6.040;2023-09-19T20:25:25;26.10;56.00
74359;DHT22;62792;46.236;6.040;2023-09-19T20:30:29;26.10;56.40
74359;DHT22;62792;46.236;6.040;2023-09-19T20:35:36;26.10;56.30
74359;DHT22;62792;46.236;6.040;2023-09-19T20:40:39;26.00;56.50
74359;DHT22;62792;46.236;6.040;2023-09-19T20:45:42;26.00;56.50
74359;DHT22;62792;46.236;6.040;2023-09-19T20:50:46;26.00;56.30
74359;DHT22;62792;46.236;6.040;2023-09-19T20:55:49;25.90;56.50
74359;DHT22;62792;46.236;6.040;2023-09-19T21:00:52;25.80;56.80
74359;DHT22;62792;46.236;6.040;2023-09-19T21:06:03;25.90;56.70
74359;DHT22;62792;46.236;6.040;2023-09-19T21:11:09;25.80;56.90
74359;DHT22;62792;46.236;6.040;2023-09-19T21:16:14;25.90;56.90
74359;DHT22;62792;46.236;6.040;2023-09-19T21:21:18;25.80;57.00
74359;DHT22;62792;46.236;6.040;2023-09-19T21:26:23;25.70;56.80
74359;DHT22;62792;46.236;6.040;2023-09-19T21:31:26;25.80;57.20
74359;DHT22;62792;46.236;6.040;2023-09-19T21:36:30;25.70;57.20
74359;DHT22;62792;46.236;6.040;2023-09-19T21:41:35;25.70;57.40
74359;DHT22;62792;46.236;6.040;2023-09-19T21:46:39;25.60;57.10
74359;DHT22;62792;46.236;6.040;2023-09-19T21:51:44;25.60;57.20
74359;DHT22;62792;46.236;6.040;2023-09-19T21:56:46;25.60;56.90
74359;DHT22;62792;46.236;6.040;2023-09-19T22:01:50;25.70;57.10
74359;DHT22;62792;46.236;6.040;2023-09-19T22:06:55;25.60;57.20
74359;DHT22;62792;46.236;6.040;2023-09-19T22:11:58;25.60;57.20
74359;DHT22;62792;46.236;6.040;2023-09-19T22:17:04;25.50;57.20
74359;DHT22;62792;46.236;6.040;2023-09-19T22:22:10;25.50;57.20
74359;DHT22;62792;46.236;6.040;2023-09-19T22:27:16;25.50;57.30
74359;DHT22;62792;46.236;6.040;2023-09-19T22:32:21;25.50;57.30
74359;DHT22;62792;46.236;6.040;2023-09-19T22:37:26;25.40;57.20
74359;DHT22;62792;46.236;6.040;2023-09-19T22:42:29;25.50;57.30
74359;DHT22;62792;46.236;6.040;2023-09-19T22:47:32;25.40;57.20
74359;DHT22;62792;46.236;6.040;2023-09-19T22:52:37;25.40;57.20
74359;DHT22;62792;46.236;6.040;2023-09-19T22:57:41;25.30;57.30
74359;DHT22;62792;46.236;6.040;2023-09-19T23:02:45;25.30;57.40
74359;DHT22;62792;46.236;6.040;2023-09-19T23:07:49;25.30;57.10
74359;DHT22;62792;46.236;6.040;2023-09-19T23:12:58;25.20;57.00
74359;DHT22;62792;46.236;6.040;2023-09-19T23:18:01;25.30;57.20
74359;DHT22;62792;46.236;6.040;2023-09-19T23:23:05;25.30;57.20
74359;DHT22;62792;46.236;6.040;2023-09-19T23:28:09;25.20;57.30
74359;DHT22;62792;46.236;6.040;2023-09-19T23:33:14;25.20;57.20
74359;DHT22;62792;46.236;6.040;2023-09-19T23:38:20;25.20;57.20
74359;DHT22;62792;46.236;6.040;2023-09-19T23:43:23;25.20;57.20
74359;DHT22;62792;46.236;6.040;2023-09-19T23:48:27;25.10;57.10
74359;DHT22;62792;46.236;6.040;2023-09-19T23:53:31;25.10;57.10
74359;DHT22;62792;46.236;6.040;2023-09-19T23:58:35;25.10;57.00
